Time;durP1;ratioP1;P1;durP2;ratioP2;P2;SDS_P1;SDS_P2;PMS_P1;PMS_P2;Temp;Humidity;BMP_temperature;BMP_pressure;BME280_temperature;BME280_humidity;BME280_pressure;Samples;Min_cycle;Max_cycle;Signal;HPM_P1;HPM_P2
2021/10/03 00:02:23;;;;;;;8.43;7.63;;;17.70;81.70;;;;;;5023178;28;20264;-87
2021/10/03 00:04:49;;;;;;;7.85;6.95;;;17.80;81.80;;;;;;5061106;28;20184;-86
2021/10/03 00:07:21;;;;;;;7.63;6.93;;;17.80;80.70;;;;;;5059462;28;20268;-87
2021/10/03 00:09:51;;;;;;;7.65;7.05;;;17.80;80.20;;;;;;5046860;28;20205;-87
2021/10/03 00:12:18;;;;;;;7.78;7.05;;;17.70;80.70;;;;;;5037005;28;20192;-87
2021/10/03 00:14:44;;;;;;;7.75;6.90;;;17.80;81.90;;;;;;5040736;28;20204;-88
2021/10/03 00:17:10;;;;;;;7.88;7.18;;;17.80;81.70;;;;;;5041400;28;20185;-88
2021/10/03 00:19:37;;;;;;;7.60;6.82;;;17.70;81.80;;;;;;5038296;28;20706;-87
2021/10/03 00:22:04;;;;;;;9.30;8.15;;;17.80;81.40;;;;;;5027304;28;20232;-87
2021/10/03 00:24:30;;;;;;;7.32;6.70;;;17.80;79.80;;;;;;5029784;28;20197;-87
2021/10/03 00:26:58;;;;;;;9.10;6.90;;;18.00;80.00;;;;;;5011476;28;20209;-87
2021/10/03 00:29:24;;;;;;;6.95;6.45;;;17.90;81.40;;;;;;5030401;28;20184;-87
2021/10/03 00:31:52;;;;;;;7.30;6.70;;;17.90;81.60;;;;;;5041058;28;20220;-87
2021/10/03 00:34:18;;;;;;;7.13;6.53;;;18.00;82.10;;;;;;5047255;28;20181;-87
2021/10/03 00:36:43;;;;;;;7.63;6.85;;;17.90;81.80;;;;;;5037894;28;20193;-87
2021/10/03 00:39:09;;;;;;;8.18;7.38;;;17.90;82.20;;;;;;5038177;28;20208;-86
2021/10/03 00:41:35;;;;;;;9.25;7.10;;;17.80;82.30;;;;;;5037882;28;20244;-87
2021/10/03 00:44:01;;;;;;;7.35;6.80;;;17.80;82.10;;;;;;5038470;28;20735;-86
2021/10/03 00:46:27;;;;;;;9.77;8.77;;;17.80;82.30;;;;;;5032534;28;20189;-86
2021/10/03 00:48:53;;;;;;;10.98;10.05;;;17.90;82.50;;;;;;5033118;28;20180;-87
2021/10/03 00:51:19;;;;;;;10.93;9.95;;;17.90;83.00;;;;;;5018332;28;20235;-86
2021/10/03 00:53:45;;;;;;;10.65;9.75;;;17.80;83.30;;;;;;5033039;28;20262;-87
2021/10/03 00:56:15;;;;;;;10.02;9.05;;;17.70;83.70;;;;;;5039822;28;20709;-89
2021/10/03 00:58:41;;;;;;;8.95;8.15;;;17.80;83.70;;;;;;5045579;28;20276;-86
2021/10/03 01:01:08;;;;;;;8.15;7.45;;;17.80;83.30;;;;;;5053339;28;20204;-87
2021/10/03 01:03:35;;;;;;;8.30;7.63;;;17.80;83.70;;;;;;5052999;28;20241;-87
2021/10/03 01:06:02;;;;;;;8.48;7.68;;;17.80;83.20;;;;;;5061628;28;20196;-86
2021/10/03 01:08:28;;;;;;;9.43;7.80;;;17.80;83.80;;;;;;5036892;28;20219;-87
2021/10/03 01:10:53;;;;;;;8.25;7.55;;;17.70;84.10;;;;;;5028819;28;20555;-86
2021/10/03 01:13:19;;;;;;;8.15;7.55;;;17.60;83.60;;;;;;5032593;28;20199;-87
2021/10/03 01:15:46;;;;;;;7.57;6.97;;;17.70;84.00;;;;;;5043405;28;20537;-87
2021/10/03 01:18:13;;;;;;;7.47;6.85;;;17.60;84.20;;;;;;5017617;28;20547;-87
2021/10/03 01:20:40;;;;;;;7.97;7.28;;;17.60;84.30;;;;;;5038625;28;20227;-87
2021/10/03 01:23:06;;;;;;;7.60;6.90;;;17.60;83.40;;;;;;5040098;28;20680;-87
2021/10/03 01:25:52;;;;;;;7.57;6.65;;;17.60;83.50;;;;;;5056852;28;20187;-88
2021/10/03 01:28:19;;;;;;;7.10;6.60;;;17.70;83.00;;;;;;5057820;28;20223;-87
2021/10/03 01:30:49;;;;;;;7.45;6.85;;;17.80;83.70;;;;;;5052723;28;20244;-86
2021/10/03 01:33:16;;;;;;;7.00;6.50;;;17.70;83.10;;;;;;5042005;28;20188;-86
2021/10/03 01:35:43;;;;;;;8.23;7.63;;;17.70;84.70;;;;;;5038314;28;20192;-86
2021/10/03 01:38:11;;;;;;;7.00;6.50;;;17.70;83.40;;;;;;5036679;28;20609;-86
2021/10/03 01:40:37;;;;;;;7.68;7.00;;;17.70;83.80;;;;;;5056556;28;20207;-87
2021/10/03 01:43:04;;;;;;;6.97;6.47;;;17.70;84.00;;;;;;5035948;28;20274;-87
2021/10/03 01:45:30;;;;;;;6.45;5.95;;;17.70;83.70;;;;;;5037708;28;20193;-87
2021/10/03 01:48:14;;;;;;;6.65;6.07;;;17.70;83.80;;;;;;5039105;28;20278;-87
2021/10/03 01:50:47;;;;;;;7.53;6.72;;;17.70;84.30;;;;;;5037150;28;20212;-87
2021/10/03 01:53:43;;;;;;;7.85;6.53;;;17.60;84.70;;;;;;5037433;28;20207;-86
2021/10/03 01:56:10;;;;;;;7.32;6.63;;;17.50;84.80;;;;;;5034754;28;20205;-87
2021/10/03 01:58:48;;;;;;;6.70;6.05;;;17.50;84.70;;;;;;5037473;28;20643;-87
2021/10/03 02:01:18;;;;;;;7.18;6.47;;;17.50;85.10;;;;;;5040163;28;20223;-87
2021/10/03 02:03:44;;;;;;;7.43;6.82;;;17.50;85.20;;;;;;5040706;28;20197;-86
2021/10/03 02:06:10;;;;;;;7.38;6.78;;;17.50;85.00;;;;;;5037750;28;20192;-86
2021/10/03 02:08:36;;;;;;;7.07;6.47;;;17.50;85.00;;;;;;5037779;28;20661;-87
2021/10/03 02:11:02;;;;;;;7.18;6.43;;;17.50;85.00;;;;;;5036733;28;20255;-86
2021/10/03 02:13:28;;;;;;;6.43;5.93;;;17.50;84.70;;;;;;5035443;28;20825;-86
2021/10/03 02:15:54;;;;;;;6.85;6.25;;;17.50;85.40;;;;;;5019011;28;20239;-87
2021/10/03 02:18:20;;;;;;;6.45;5.88;;;17.50;84.60;;;;;;5039331;28;20727;-86
2021/10/03 02:20:51;;;;;;;9.20;6.53;;;17.60;84.90;;;;;;5018604;28;20213;-87
2021/10/03 02:23:17;;;;;;;7.38;6.72;;;17.60;84.60;;;;;;5039993;28;20189;-86
2021/10/03 02:25:44;;;;;;;7.43;6.63;;;17.60;84.40;;;;;;5042457;28;20195;-87
2021/10/03 02:28:18;;;;;;;7.28;6.57;;;17.50;84.70;;;;;;5018279;28;20189;-86
2021/10/03 02:30:46;;;;;;;7.63;6.47;;;17.50;84.80;;;;;;5034551;28;20282;-86
2021/10/03 02:33:12;;;;;;;6.88;6.28;;;17.50;84.70;;;;;;5035740;28;20203;-87
2021/10/03 02:35:38;;;;;;;7.78;6.50;;;17.50;85.10;;;;;;5037068;28;20189;-86
2021/10/03 02:38:07;;;;;;;7.38;6.68;;;17.40;85.60;;;;;;5016972;28;20185;-87
2021/10/03 02:40:33;;;;;;;6.65;6.05;;;17.40;85.40;;;;;;5036219;28;20235;-87
2021/10/03 02:43:00;;;;;;;6.50;6.00;;;17.40;85.80;;;;;;5036555;28;20267;-87
2021/10/03 02:45:26;;;;;;;8.60;6.20;;;17.30;86.20;;;;;;5038780;28;20180;-87
2021/10/03 02:47:53;;;;;;;6.45;5.95;;;17.30;85.90;;;;;;5036342;28;20279;-87
2021/10/03 02:50:18;;;;;;;6.82;6.28;;;17.40;85.50;;;;;;5036457;28;20297;-86
2021/10/03 02:52:44;;;;;;;7.03;6.32;;;17.40;86.00;;;;;;5036988;28;20334;-86
2021/10/03 02:55:10;;;;;;;6.30;5.80;;;17.40;86.30;;;;;;5034726;28;20191;-87
2021/10/03 02:57:36;;;;;;;7.68;6.55;;;17.30;86.30;;;;;;5036864;28;20237;-87
2021/10/03 03:00:05;;;;;;;6.30;5.70;;;17.30;86.80;;;;;;5036582;28;20243;-86
2021/10/03 03:02:30;;;;;;;6.57;6.05;;;17.30;86.50;;;;;;5034747;28;20250;-87
2021/10/03 03:04:56;;;;;;;6.93;6.07;;;17.30;86.50;;;;;;5036843;28;20185;-87
2021/10/03 03:07:22;;;;;;;6.13;5.55;;;17.30;86.00;;;;;;5002634;28;20195;-87
2021/10/03 03:09:48;;;;;;;6.43;5.82;;;17.40;85.70;;;;;;5036987;28;20197;-86
2021/10/03 03:12:13;;;;;;;6.70;6.13;;;17.40;85.30;;;;;;5033502;28;20209;-87
2021/10/03 03:14:39;;;;;;;6.50;5.90;;;17.40;85.90;;;;;;5041263;28;20240;-87
2021/10/03 03:17:16;;;;;;;6.63;6.03;;;17.40;85.70;;;;;;5036051;28;20204;-87
2021/10/03 03:19:42;;;;;;;6.07;5.50;;;17.50;85.00;;;;;;5014375;28;20216;-87
2021/10/03 03:22:09;;;;;;;6.50;5.90;;;17.50;85.00;;;;;;5023763;28;20208;-87
2021/10/03 03:24:35;;;;;;;6.22;5.60;;;17.50;85.20;;;;;;5048053;28;20204;-86
2021/10/03 03:27:01;;;;;;;6.95;6.22;;;17.50;85.40;;;;;;5014134;28;20200;-87
2021/10/03 03:29:27;;;;;;;6.68;6.18;;;17.40;85.50;;;;;;5025981;28;20221;-87
2021/10/03 03:31:54;;;;;;;6.93;6.32;;;17.40;86.20;;;;;;5036834;28;20254;-87
2021/10/03 03:34:20;;;;;;;6.65;6.15;;;17.30;86.00;;;;;;5026857;28;20271;-89
2021/10/03 03:36:46;;;;;;;7.15;5.97;;;17.30;85.90;;;;;;5045225;28;20203;-87
2021/10/03 03:39:11;;;;;;;7.38;5.75;;;17.30;86.00;;;;;;5036389;28;20207;-87
2021/10/03 03:41:37;;;;;;;6.85;6.25;;;17.30;86.80;;;;;;5035265;28;20533;-87
2021/10/03 03:44:03;;;;;;;7.03;6.43;;;17.20;86.90;;;;;;5035232;28;20201;-86
2021/10/03 03:46:29;;;;;;;7.10;6.45;;;17.30;86.70;;;;;;5017393;28;20188;-87
2021/10/03 03:48:55;;;;;;;6.72;6.22;;;17.30;86.50;;;;;;5035800;28;20260;-87
2021/10/03 03:51:21;;;;;;;7.10;6.50;;;17.30;86.60;;;;;;5035036;28;20228;-87
2021/10/03 03:53:46;;;;;;;6.75;6.22;;;17.40;86.50;;;;;;5035941;28;20199;-86
2021/10/03 03:56:12;;;;;;;6.28;5.78;;;17.40;86.10;;;;;;5036279;28;20197;-87
2021/10/03 03:58:38;;;;;;;6.75;6.13;;;17.30;86.50;;;;;;5034592;28;20208;-87
2021/10/03 04:01:04;;;;;;;7.35;6.70;;;17.40;86.30;;;;;;5033493;28;20221;-86
2021/10/03 04:03:30;;;;;;;7.35;6.75;;;17.20;86.90;;;;;;5036041;28;20221;-87
2021/10/03 04:05:55;;;;;;;7.38;6.70;;;17.30;86.80;;;;;;5025431;28;20191;-87
2021/10/03 04:08:23;;;;;;;6.85;6.20;;;17.30;87.00;;;;;;5038565;28;20201;-87
2021/10/03 04:10:50;;;;;;;7.32;6.72;;;17.30;87.20;;;;;;5035248;28;20209;-86
2021/10/03 04:13:17;;;;;;;6.57;6.07;;;17.30;87.70;;;;;;5020631;28;20960;-86
2021/10/03 04:15:43;;;;;;;6.72;6.15;;;17.10;88.00;;;;;;5030942;28;20684;-86
2021/10/03 04:18:09;;;;;;;6.45;5.85;;;17.20;87.90;;;;;;5035959;28;20189;-87
2021/10/03 04:20:35;;;;;;;6.00;5.53;;;17.10;87.80;;;;;;5018302;28;20251;-86
2021/10/03 04:23:00;;;;;;;6.68;6.07;;;17.10;87.20;;;;;;5037838;28;20189;-86
2021/10/03 04:25:26;;;;;;;7.15;6.45;;;17.20;86.70;;;;;;5043464;28;20196;-87
2021/10/03 04:27:52;;;;;;;7.10;6.43;;;17.30;86.70;;;;;;5050571;28;20756;-87
2021/10/03 04:30:17;;;;;;;6.78;5.95;;;17.30;86.80;;;;;;5052115;28;20213;-87
2021/10/03 04:32:43;;;;;;;6.50;5.90;;;17.20;87.00;;;;;;5051506;28;20182;-86
2021/10/03 04:35:09;;;;;;;6.88;6.38;;;17.30;86.90;;;;;;5043048;28;20204;-86
2021/10/03 04:37:35;;;;;;;6.80;6.00;;;17.30;87.10;;;;;;5035767;28;20193;-86
2021/10/03 04:40:01;;;;;;;7.15;6.55;;;17.30;87.10;;;;;;5034104;28;20280;-87
2021/10/03 04:42:27;;;;;;;6.97;6.38;;;17.20;87.50;;;;;;4999339;28;20191;-87
2021/10/03 04:44:52;;;;;;;7.60;6.90;;;17.20;87.70;;;;;;5019628;28;20193;-87
2021/10/03 04:47:18;;;;;;;7.38;6.78;;;17.00;88.80;;;;;;5019989;28;20193;-87
2021/10/03 04:49:44;;;;;;;6.60;5.97;;;17.00;88.00;;;;;;5020028;28;20189;-86
2021/10/03 04:52:10;;;;;;;7.15;6.55;;;17.10;87.90;;;;;;5040901;28;20291;-86
2021/10/03 04:54:35;;;;;;;6.90;6.35;;;17.10;88.10;;;;;;5024982;28;20215;-86
2021/10/03 04:57:01;;;;;;;6.85;6.30;;;17.20;88.40;;;;;;5017324;28;20279;-86
2021/10/03 04:59:28;;;;;;;7.00;6.32;;;17.10;88.80;;;;;;5028235;28;20192;-86
2021/10/03 05:01:54;;;;;;;7.13;6.53;;;17.00;88.90;;;;;;5040191;28;20745;-86
2021/10/03 05:04:20;;;;;;;7.15;6.65;;;17.00;88.70;;;;;;5039666;28;20196;-86
2021/10/03 05:06:45;;;;;;;6.82;6.22;;;17.10;88.40;;;;;;5038317;28;20196;-86
2021/10/03 05:09:11;;;;;;;7.05;6.45;;;17.00;88.40;;;;;;5023745;28;20201;-86
2021/10/03 05:11:37;;;;;;;7.30;6.60;;;17.00;88.40;;;;;;5045272;28;20223;-86
2021/10/03 05:14:06;;;;;;;6.50;5.88;;;17.10;88.40;;;;;;5045267;28;20238;-86
2021/10/03 05:16:33;;;;;;;6.95;6.35;;;17.10;88.50;;;;;;5027694;28;20251;-86
2021/10/03 05:18:59;;;;;;;6.90;6.30;;;17.00;89.10;;;;;;5040257;28;20215;-87
2021/10/03 05:21:25;;;;;;;7.22;6.63;;;17.00;89.30;;;;;;5042200;28;20699;-86
2021/10/03 05:23:51;;;;;;;6.97;6.38;;;17.00;89.80;;;;;;5053808;28;20208;-87
2021/10/03 05:26:17;;;;;;;6.72;6.13;;;17.00;89.70;;;;;;5041562;28;20200;-85
2021/10/03 05:28:42;;;;;;;7.38;6.55;;;17.00;89.20;;;;;;5036849;28;20203;-86
2021/10/03 05:31:08;;;;;;;7.05;6.35;;;17.00;89.90;;;;;;5044813;28;20211;-86
2021/10/03 05:33:35;;;;;;;6.65;6.05;;;16.90;90.20;;;;;;5041072;28;20195;-85
2021/10/03 05:36:01;;;;;;;6.93;6.32;;;16.90;90.00;;;;;;5040583;28;20203;-86
2021/10/03 05:38:27;;;;;;;5.97;5.57;;;17.00;89.60;;;;;;5037126;28;20193;-85
2021/10/03 05:40:53;;;;;;;6.90;6.30;;;17.00;89.60;;;;;;5038604;28;20633;-86
2021/10/03 05:43:19;;;;;;;6.72;6.03;;;17.00;88.80;;;;;;5038698;28;20263;-86
2021/10/03 05:45:45;;;;;;;6.38;5.82;;;17.10;89.70;;;;;;5038443;28;20190;-85
2021/10/03 05:48:10;;;;;;;7.10;5.82;;;17.10;89.50;;;;;;5038841;28;20188;-85
2021/10/03 05:50:36;;;;;;;5.72;5.22;;;17.10;89.40;;;;;;5032964;28;20245;-86
2021/10/03 05:53:02;;;;;;;6.90;6.40;;;17.00;89.60;;;;;;5021724;28;20231;-85
2021/10/03 05:55:28;;;;;;;6.55;6.05;;;17.00;89.80;;;;;;5038889;28;20712;-85
2021/10/03 05:57:54;;;;;;;6.93;6.32;;;17.00;89.90;;;;;;5039653;28;20192;-86
2021/10/03 06:00:20;;;;;;;6.13;5.63;;;17.00;89.30;;;;;;5018279;28;20224;-86
2021/10/03 06:02:45;;;;;;;6.32;5.82;;;17.20;89.00;;;;;;5035429;28;20215;-86
2021/10/03 06:05:11;;;;;;;6.00;5.53;;;17.10;89.40;;;;;;5035950;28;20209;-87
2021/10/03 06:07:37;;;;;;;6.30;5.80;;;17.10;89.80;;;;;;5037724;28;20188;-86
2021/10/03 06:10:04;;;;;;;8.35;7.60;;;17.20;88.90;;;;;;5036125;28;20265;-86
2021/10/03 06:12:30;;;;;;;8.20;7.13;;;17.30;88.60;;;;;;5035218;28;20185;-86
2021/10/03 06:14:55;;;;;;;6.80;6.13;;;17.30;89.10;;;;;;5036727;28;20207;-88
2021/10/03 06:17:21;;;;;;;7.30;6.70;;;17.40;88.90;;;;;;5035078;28;20203;-87
2021/10/03 06:19:47;;;;;;;8.40;6.95;;;17.30;89.60;;;;;;5030773;28;20221;-87
2021/10/03 06:22:13;;;;;;;6.43;5.90;;;17.30;89.80;;;;;;5026152;28;20311;-86
2021/10/03 06:24:39;;;;;;;6.38;5.82;;;17.30;89.60;;;;;;5015540;28;20190;-85
2021/10/03 06:27:05;;;;;;;7.30;6.70;;;17.30;89.40;;;;;;5037614;28;20216;-86
2021/10/03 06:29:31;;;;;;;6.95;6.35;;;17.30;90.30;;;;;;5042290;28;20213;-84
2021/10/03 06:31:57;;;;;;;7.53;6.93;;;17.20;89.80;;;;;;5036680;28;20290;-84
2021/10/03 06:34:22;;;;;;;6.88;6.28;;;17.40;89.10;;;;;;5036025;28;20196;-84
2021/10/03 06:36:48;;;;;;;7.28;6.57;;;17.40;88.70;;;;;;5034101;28;20219;-84
2021/10/03 06:39:15;;;;;;;8.50;7.00;;;17.40;88.50;;;;;;5015179;28;20189;-85
2021/10/03 06:41:41;;;;;;;8.50;6.68;;;17.50;88.50;;;;;;5026807;28;20238;-85
2021/10/03 06:44:07;;;;;;;7.50;6.75;;;17.50;89.40;;;;;;5034900;28;20279;-86
2021/10/03 06:46:33;;;;;;;6.88;6.28;;;17.50;90.00;;;;;;5036237;28;20246;-86
2021/10/03 06:48:59;;;;;;;7.43;6.80;;;17.40;90.20;;;;;;5031768;28;20205;-85
2021/10/03 06:51:25;;;;;;;7.22;6.53;;;17.30;90.20;;;;;;5032698;28;20294;-86
2021/10/03 06:53:51;;;;;;;6.97;6.40;;;17.30;90.60;;;;;;5017319;28;20830;-85
2021/10/03 06:56:16;;;;;;;6.97;6.25;;;17.20;91.10;;;;;;5032744;28;20195;-85
2021/10/03 06:58:42;;;;;;;7.13;6.43;;;17.30;91.10;;;;;;5036565;28;20208;-86
2021/10/03 07:01:08;;;;;;;8.93;6.40;;;17.30;91.70;;;;;;5043740;28;20246;-86
2021/10/03 07:03:33;;;;;;;7.15;6.53;;;17.40;90.80;;;;;;5044088;28;20279;-85
2021/10/03 07:05:59;;;;;;;6.57;6.07;;;17.50;90.70;;;;;;5034665;28;20215;-85
2021/10/03 07:08:25;;;;;;;6.60;6.03;;;17.50;90.40;;;;;;5039105;28;20286;-86
2021/10/03 07:10:51;;;;;;;7.22;6.63;;;17.60;90.30;;;;;;5021319;28;20212;-86
2021/10/03 07:13:17;;;;;;;6.80;6.20;;;17.60;90.60;;;;;;5039258;28;20206;-86
2021/10/03 07:15:43;;;;;;;7.05;6.35;;;17.60;90.90;;;;;;5039930;28;20205;-87
2021/10/03 07:18:11;;;;;;;7.22;6.63;;;17.60;90.60;;;;;;5054405;28;20189;-87
2021/10/03 07:20:37;;;;;;;6.35;5.75;;;17.70;90.90;;;;;;5039795;28;20215;-88
2021/10/03 07:23:03;;;;;;;6.70;6.20;;;17.60;91.10;;;;;;5021893;28;20192;-87
2021/10/03 07:25:28;;;;;;;8.32;7.32;;;17.50;91.30;;;;;;5040589;28;20200;-87
2021/10/03 07:27:54;;;;;;;7.05;6.50;;;17.60;91.40;;;;;;5041555;28;20195;-86
2021/10/03 07:30:20;;;;;;;7.15;6.45;;;17.40;92.10;;;;;;5041546;28;20573;-87
2021/10/03 07:32:46;;;;;;;6.30;5.80;;;17.50;92.60;;;;;;5034285;28;20665;-86
2021/10/03 07:35:12;;;;;;;6.72;6.15;;;17.40;92.60;;;;;;5033597;28;20204;-87
2021/10/03 07:37:38;;;;;;;7.07;6.50;;;17.50;92.50;;;;;;5031113;28;20246;-86
2021/10/03 07:40:05;;;;;;;6.85;6.20;;;17.50;93.20;;;;;;5024068;28;20299;-88
2021/10/03 07:42:31;;;;;;;6.70;6.18;;;17.40;92.80;;;;;;4997955;28;20716;-87
2021/10/03 07:44:57;;;;;;;7.10;6.40;;;17.50;92.70;;;;;;5028286;28;20215;-86
2021/10/03 07:47:23;;;;;;;6.97;6.38;;;17.50;93.40;;;;;;5033793;28;20196;-86
2021/10/03 07:49:49;;;;;;;8.27;7.47;;;17.40;93.40;;;;;;5031694;28;20196;-84
2021/10/03 07:52:15;;;;;;;6.63;6.13;;;17.40;94.30;;;;;;5032814;28;20220;-86
2021/10/03 07:54:40;;;;;;;6.93;6.30;;;17.50;93.90;;;;;;5013757;28;20211;-86
2021/10/03 07:57:06;;;;;;;7.32;6.65;;;17.50;93.00;;;;;;5029533;28;20194;-84
2021/10/03 07:59:33;;;;;;;6.47;5.80;;;17.50;93.20;;;;;;5011855;28;20190;-87
2021/10/03 08:01:59;;;;;;;6.97;6.38;;;17.60;93.10;;;;;;5019462;28;20206;-86
2021/10/03 08:04:24;;;;;;;7.20;6.50;;;17.60;93.30;;;;;;5029224;28;20185;-85
2021/10/03 08:06:50;;;;;;;7.07;6.38;;;17.60;93.00;;;;;;5050678;28;20334;-86
2021/10/03 08:09:16;;;;;;;7.20;6.53;;;17.50;92.90;;;;;;5038333;28;20204;-85
2021/10/03 08:11:42;;;;;;;7.10;6.50;;;17.60;92.10;;;;;;5035560;28;20220;-85
2021/10/03 08:14:08;;;;;;;7.00;6.40;;;17.60;91.70;;;;;;5038342;28;20365;-86
2021/10/03 08:16:33;;;;;;;7.38;6.68;;;17.70;91.80;;;;;;5037239;28;20204;-86
2021/10/03 08:18:59;;;;;;;6.75;6.15;;;17.60;91.60;;;;;;5011272;28;20655;-85
2021/10/03 08:21:27;;;;;;;8.43;7.80;;;17.60;91.10;;;;;;5021686;28;20212;-85
2021/10/03 08:23:52;;;;;;;7.40;6.78;;;17.60;93.20;;;;;;4998517;28;20209;-84
2021/10/03 08:26:18;;;;;;;7.13;6.53;;;17.60;92.30;;;;;;5033675;28;20191;-85
2021/10/03 08:28:44;;;;;;;8.73;7.45;;;17.60;92.20;;;;;;5033357;28;20730;-86
2021/10/03 08:31:11;;;;;;;7.57;6.70;;;17.80;91.90;;;;;;5050580;28;20235;-85
2021/10/03 08:33:38;;;;;;;6.72;6.22;;;17.80;93.10;;;;;;5050097;28;20202;-85
2021/10/03 08:36:04;;;;;;;7.50;6.88;;;17.80;93.00;;;;;;5049163;28;20192;-84
2021/10/03 08:38:30;;;;;;;8.02;6.18;;;17.80;93.20;;;;;;5035511;28;20259;-85
2021/10/03 08:40:56;;;;;;;8.23;6.45;;;17.70;93.30;;;;;;5049006;28;20231;-85
2021/10/03 08:43:21;;;;;;;7.90;7.18;;;17.60;94.50;;;;;;5033085;28;20189;-85
2021/10/03 08:45:48;;;;;;;7.00;6.40;;;17.60;94.30;;;;;;5034962;28;20278;-85
2021/10/03 08:48:16;;;;;;;7.10;6.50;;;17.70;93.70;;;;;;5055580;28;20210;-84
2021/10/03 08:50:44;;;;;;;7.60;6.90;;;17.70;93.40;;;;;;5054363;28;20192;-84
2021/10/03 08:53:10;;;;;;;6.93;6.25;;;17.70;93.60;;;;;;5045771;28;20220;-85
2021/10/03 08:55:36;;;;;;;10.60;7.32;;;17.80;92.80;;;;;;5034082;28;20211;-84
2021/10/03 08:58:02;;;;;;;7.05;6.45;;;18.00;93.10;;;;;;5034616;28;20189;-85
2021/10/03 09:00:28;;;;;;;7.30;6.63;;;17.90;93.40;;;;;;5011400;28;20221;-85
2021/10/03 09:03:07;;;;;;;7.85;6.97;;;17.90;92.40;;;;;;5021309;28;20227;-85
2021/10/03 09:05:35;;;;;;;6.90;6.30;;;18.10;92.20;;;;;;5036650;28;20279;-85
2021/10/03 09:08:06;;;;;;;7.60;6.97;;;18.10;90.80;;;;;;5031677;28;20181;-84
2021/10/03 09:10:59;;;;;;;8.13;7.32;;;18.10;90.90;;;;;;5036447;28;20220;-85
2021/10/03 09:13:30;;;;;;;6.97;6.45;;;18.10;90.70;;;;;;5036003;28;20189;-85
2021/10/03 09:16:13;;;;;;;7.32;6.72;;;18.10;90.70;;;;;;5041686;28;20196;-85
2021/10/03 09:18:48;;;;;;;7.50;6.90;;;18.20;89.40;;;;;;5028940;28;20247;-85
2021/10/03 09:21:41;;;;;;;7.97;7.28;;;18.30;88.00;;;;;;5033246;28;20218;-85
2021/10/03 09:24:15;;;;;;;7.93;7.32;;;18.40;87.00;;;;;;5030251;28;20236;-85
2021/10/03 09:27:01;;;;;;;7.00;6.38;;;18.50;87.10;;;;;;5049528;28;20184;-85
2021/10/03 09:29:36;;;;;;;8.82;7.05;;;18.50;87.20;;;;;;5016778;28;20218;-85
2021/10/03 09:32:14;;;;;;;8.23;7.43;;;18.60;86.00;;;;;;5028604;28;20240;-85
2021/10/03 09:34:52;;;;;;;9.77;6.50;;;18.70;85.30;;;;;;5012512;28;20217;-85
2021/10/03 09:37:26;;;;;;;8.52;7.72;;;18.80;85.10;;;;;;5028554;28;20235;-85
2021/10/03 09:40:12;;;;;;;8.02;7.32;;;18.80;85.40;;;;;;5031394;28;20188;-85
2021/10/03 09:42:39;;;;;;;7.78;7.15;;;18.80;84.90;;;;;;5029057;28;20173;-85
2021/10/03 09:45:11;;;;;;;7.95;7.20;;;18.90;83.90;;;;;;5012193;28;20581;-85
2021/10/03 09:47:39;;;;;;;8.27;7.65;;;19.00;83.70;;;;;;5012077;28;20787;-85
2021/10/03 09:50:07;;;;;;;6.88;6.38;;;19.10;82.10;;;;;;5030572;28;20198;-85
2021/10/03 09:52:34;;;;;;;7.20;6.60;;;19.20;83.60;;;;;;5029151;28;20696;-87
2021/10/03 09:55:02;;;;;;;7.45;6.85;;;19.20;84.80;;;;;;5019908;28;20270;-85
2021/10/03 09:57:28;;;;;;;6.95;6.25;;;19.30;85.00;;;;;;5030240;28;20685;-84
2021/10/03 09:59:56;;;;;;;7.00;6.50;;;19.40;84.70;;;;;;5028646;28;20201;-86
2021/10/03 10:02:23;;;;;;;6.57;6.07;;;19.40;85.30;;;;;;5012609;28;20188;-85
2021/10/03 10:04:49;;;;;;;7.80;6.22;;;19.50;85.00;;;;;;5029670;28;20218;-85
2021/10/03 10:07:16;;;;;;;7.60;7.00;;;19.40;85.20;;;;;;5032955;28;20561;-85
2021/10/03 10:09:45;;;;;;;7.38;6.78;;;19.40;86.60;;;;;;5031434;28;20202;-86
2021/10/03 10:12:23;;;;;;;7.55;6.85;;;19.30;88.10;;;;;;5028221;28;20783;-87
2021/10/03 10:14:58;;;;;;;6.95;6.30;;;19.30;87.90;;;;;;5028781;28;20812;-87
2021/10/03 10:17:33;;;;;;;7.55;6.88;;;19.30;88.40;;;;;;5027930;28;20187;-87
2021/10/03 10:20:01;;;;;;;7.30;6.72;;;19.30;89.10;;;;;;5027370;28;20698;-87
2021/10/03 10:22:29;;;;;;;7.15;6.55;;;19.20;89.30;;;;;;5025915;28;20181;-87
2021/10/03 10:25:00;;;;;;;7.40;6.65;;;19.00;89.80;;;;;;5037330;28;20652;-88
2021/10/03 10:27:28;;;;;;;7.63;7.03;;;19.10;90.30;;;;;;5010497;28;20195;-87
2021/10/03 10:30:01;;;;;;;7.32;6.72;;;19.10;87.70;;;;;;5030935;28;20684;-88
2021/10/03 10:32:33;;;;;;;7.45;6.85;;;19.10;88.10;;;;;;5033477;28;20200;-88
2021/10/03 10:35:07;;;;;;;8.45;6.70;;;19.20;88.10;;;;;;5033659;28;20650;-87
2021/10/03 10:37:53;;;;;;;7.60;7.05;;;19.10;89.60;;;;;;5029513;28;20200;-87
2021/10/03 10:40:21;;;;;;;8.50;7.70;;;19.20;89.00;;;;;;4997153;28;20212;-86
2021/10/03 10:42:48;;;;;;;7.75;7.05;;;19.40;88.40;;;;;;5030378;28;20197;-88
2021/10/03 10:45:35;;;;;;;7.45;6.57;;;19.40;90.30;;;;;;5030805;28;20186;-86
2021/10/03 10:48:06;;;;;;;7.28;6.75;;;19.30;92.20;;;;;;5025077;28;20199;-88
2021/10/03 10:50:46;;;;;;;7.93;7.22;;;19.40;92.10;;;;;;5018896;28;20672;-88
2021/10/03 10:53:32;;;;;;;7.57;6.78;;;19.20;90.70;;;;;;5013873;28;20201;-87
2021/10/03 10:56:10;;;;;;;7.22;6.72;;;19.40;90.40;;;;;;5029005;28;20200;-87
2021/10/03 10:59:01;;;;;;;7.72;7.03;;;19.50;90.10;;;;;;5008736;28;20204;-88
2021/10/03 11:01:30;;;;;;;7.30;6.70;;;19.60;89.80;;;;;;5030120;28;20639;-87
2021/10/03 11:03:59;;;;;;;7.10;6.50;;;19.60;89.80;;;;;;5039220;28;20674;-87
2021/10/03 11:06:32;;;;;;;7.47;6.88;;;19.70;88.60;;;;;;5033559;28;20309;-86
2021/10/03 11:09:00;;;;;;;8.13;7.53;;;19.60;89.80;;;;;;5030337;28;20204;-87
2021/10/03 11:11:34;;;;;;;7.85;6.97;;;19.70;88.80;;;;;;5028036;28;20265;-87
2021/10/03 11:14:00;;;;;;;7.35;6.65;;;19.80;89.40;;;;;;5012283;28;20230;-88
2021/10/03 11:16:29;;;;;;;7.97;7.28;;;20.00;86.30;;;;;;5012587;28;20353;-88
2021/10/03 11:18:57;;;;;;;7.82;6.75;;;20.00;85.50;;;;;;5014103;28;20252;-88
2021/10/03 11:21:26;;;;;;;7.28;6.70;;;20.10;85.10;;;;;;5030278;28;20256;-87
2021/10/03 11:23:57;;;;;;;7.45;6.85;;;20.10;82.10;;;;;;5037819;28;20175;-88
2021/10/03 11:26:26;;;;;;;7.78;6.75;;;20.10;82.70;;;;;;5036961;28;20287;-88
2021/10/03 11:28:56;;;;;;;6.72;6.10;;;20.10;81.60;;;;;;5044140;28;20191;-87
2021/10/03 11:31:49;;;;;;;6.90;6.40;;;20.10;80.70;;;;;;5020157;28;20227;-88
2021/10/03 11:34:28;;;;;;;6.57;6.07;;;20.10;81.20;;;;;;5020838;28;20199;-89
2021/10/03 11:36:54;;;;;;;7.20;6.60;;;20.10;81.50;;;;;;5022020;28;20600;-87
2021/10/03 11:39:52;;;;;;;7.57;6.93;;;20.00;82.00;;;;;;5019376;28;20263;-87
2021/10/03 11:42:36;;;;;;;6.88;6.25;;;20.10;80.70;;;;;;5028089;28;20197;-87
2021/10/03 11:45:17;;;;;;;7.45;6.80;;;20.50;79.80;;;;;;5040048;28;20197;-87
2021/10/03 11:47:54;;;;;;;6.95;6.35;;;20.70;77.40;;;;;;5035574;28;20188;-86
2021/10/03 11:50:23;;;;;;;7.82;7.03;;;20.80;78.20;;;;;;5029979;28;20224;-87
2021/10/03 11:52:55;;;;;;;8.07;7.35;;;20.70;77.80;;;;;;5031031;28;20753;-86
2021/10/03 11:55:32;;;;;;;7.78;7.13;;;20.80;77.20;;;;;;5006159;28;20200;-87
2021/10/03 11:58:03;;;;;;;8.10;7.50;;;20.70;77.80;;;;;;5028820;28;20330;-86
2021/10/03 12:00:29;;;;;;;8.45;7.70;;;20.80;77.50;;;;;;5012668;28;20216;-86
2021/10/03 12:03:03;;;;;;;9.05;8.20;;;20.80;78.20;;;;;;5030194;28;20191;-86
2021/10/03 12:05:31;;;;;;;8.52;7.80;;;20.70;79.30;;;;;;5015713;28;20556;-86
2021/10/03 12:08:02;;;;;;;8.60;7.80;;;20.80;80.00;;;;;;5031207;28;20197;-85
2021/10/03 12:10:49;;;;;;;8.15;7.35;;;20.90;79.50;;;;;;5015479;28;20223;-86
2021/10/03 12:13:16;;;;;;;8.20;7.57;;;21.10;79.30;;;;;;5032924;28;20197;-87
2021/10/03 12:15:43;;;;;;;8.07;7.47;;;21.30;77.90;;;;;;5039433;28;20869;-86
2021/10/03 12:18:26;;;;;;;7.75;7.05;;;21.50;77.60;;;;;;5015614;28;20205;-86
2021/10/03 12:20:53;;;;;;;8.10;7.40;;;21.70;77.50;;;;;;5030550;28;20228;-86
2021/10/03 12:23:20;;;;;;;8.63;7.60;;;21.90;77.20;;;;;;5033560;28;20203;-86
2021/10/03 12:25:50;;;;;;;8.63;8.02;;;21.90;77.00;;;;;;5036636;28;20184;-86
2021/10/03 12:28:17;;;;;;;8.18;7.40;;;22.00;76.40;;;;;;5035771;28;20189;-86
2021/10/03 12:30:49;;;;;;;7.50;6.90;;;22.00;76.40;;;;;;5037878;28;20247;-86
2021/10/03 12:33:16;;;;;;;7.85;6.90;;;21.90;78.40;;;;;;5040836;28;20208;-86
2021/10/03 12:35:59;;;;;;;7.85;7.25;;;21.70;78.10;;;;;;5035829;28;20551;-87
2021/10/03 12:38:25;;;;;;;7.88;7.28;;;21.80;78.50;;;;;;5039462;28;20199;-88
2021/10/03 12:40:51;;;;;;;8.43;6.32;;;21.50;78.90;;;;;;5039040;28;20295;-87
2021/10/03 12:43:17;;;;;;;7.18;6.47;;;21.60;78.80;;;;;;5034482;28;20205;-88
2021/10/03 12:45:42;;;;;;;7.45;6.88;;;21.50;80.30;;;;;;5018119;28;20208;-87
2021/10/03 12:48:08;;;;;;;7.75;6.88;;;21.50;80.20;;;;;;5046938;28;20189;-87
2021/10/03 12:50:34;;;;;;;8.00;7.28;;;21.30;81.60;;;;;;5019794;28;20206;-86
2021/10/03 12:53:00;;;;;;;7.53;6.85;;;21.00;81.50;;;;;;5031530;28;20197;-87